sensor_id;sensor_type;location;lat;lon;timestamp;temperature;humidity
24426;DHT22;12611;44.446;26.000;2022-12-29T00:01:48;5.60;74.70
24426;DHT22;12611;44.446;26.000;2022-12-29T00:04:16;5.50;74.90
24426;DHT22;12611;44.446;26.000;2022-12-29T00:06:45;5.50;74.90
24426;DHT22;12611;44.446;26.000;2022-12-29T00:09:13;5.50;75.00
24426;DHT22;12611;44.446;26.000;2022-12-29T00:11:43;5.50;75.00
24426;DHT22;12611;44.446;26.000;2022-12-29T00:14:12;5.50;75.00
24426;DHT22;12611;44.446;26.000;2022-12-29T00:16:59;5.50;75.00
24426;DHT22;12611;44.446;26.000;2022-12-29T00:19:28;5.50;75.10
24426;DHT22;12611;44.446;26.000;2022-12-29T00:22:14;5.50;75.20
24426;DHT22;12611;44.446;26.000;2022-12-29T00:25:00;5.40;75.10
24426;DHT22;12611;44.446;26.000;2022-12-29T00:27:46;5.40;75.30
24426;DHT22;12611;44.446;26.000;2022-12-29T00:30:35;5.40;75.40
24426;DHT22;12611;44.446;26.000;2022-12-29T00:33:28;5.40;75.50
24426;DHT22;12611;44.446;26.000;2022-12-29T00:36:16;5.40;75.50
24426;DHT22;12611;44.446;26.000;2022-12-29T00:38:47;5.30;75.50
24426;DHT22;12611;44.446;26.000;2022-12-29T00:41:34;5.30;75.50
24426;DHT22;12611;44.446;26.000;2022-12-29T00:44:20;5.30;75.50
24426;DHT22;12611;44.446;26.000;2022-12-29T00:46:48;5.30;75.60
24426;DHT22;12611;44.446;26.000;2022-12-29T00:49:18;5.30;75.60
24426;DHT22;12611;44.446;26.000;2022-12-29T00:52:08;5.30;75.80
24426;DHT22;12611;44.446;26.000;2022-12-29T00:54:38;5.30;76.70
24426;DHT22;12611;44.446;26.000;2022-12-29T00:57:08;5.20;76.70
24426;DHT22;12611;44.446;26.000;2022-12-29T00:59:37;5.20;76.60
24426;DHT22;12611;44.446;26.000;2022-12-29T01:02:06;5.20;76.70
24426;DHT22;12611;44.446;26.000;2022-12-29T01:04:36;5.20;76.80
24426;DHT22;12611;44.446;26.000;2022-12-29T01:07:04;5.20;76.80
24426;DHT22;12611;44.446;26.000;2022-12-29T01:09:33;5.20;76.90
24426;DHT22;12611;44.446;26.000;2022-12-29T01:12:18;5.10;76.70
24426;DHT22;12611;44.446;26.000;2022-12-29T01:15:09;5.10;76.90
24426;DHT22;12611;44.446;26.000;2022-12-29T01:17:37;5.10;76.90
24426;DHT22;12611;44.446;26.000;2022-12-29T01:20:09;5.10;76.90
24426;DHT22;12611;44.446;26.000;2022-12-29T01:22:37;5.10;76.90
24426;DHT22;12611;44.446;26.000;2022-12-29T01:25:07;5.10;77.00
24426;DHT22;12611;44.446;26.000;2022-12-29T01:27:35;5.00;77.00
24426;DHT22;12611;44.446;26.000;2022-12-29T01:30:05;5.00;77.80
24426;DHT22;12611;44.446;26.000;2022-12-29T01:32:33;5.00;77.80
24426;DHT22;12611;44.446;26.000;2022-12-29T01:35:02;5.00;77.90
24426;DHT22;12611;44.446;26.000;2022-12-29T01:37:31;5.00;77.80
24426;DHT22;12611;44.446;26.000;2022-12-29T01:40:00;5.00;77.70
24426;DHT22;12611;44.446;26.000;2022-12-29T01:42:28;5.00;78.50
24426;DHT22;12611;44.446;26.000;2022-12-29T01:44:57;4.90;78.30
24426;DHT22;12611;44.446;26.000;2022-12-29T01:47:32;5.00;78.30
24426;DHT22;12611;44.446;26.000;2022-12-29T01:50:06;5.00;78.20
24426;DHT22;12611;44.446;26.000;2022-12-29T01:52:41;5.00;78.00
24426;DHT22;12611;44.446;26.000;2022-12-29T01:55:11;4.90;77.90
24426;DHT22;12611;44.446;26.000;2022-12-29T01:57:42;4.90;77.90
24426;DHT22;12611;44.446;26.000;2022-12-29T02:00:13;4.90;77.90
24426;DHT22;12611;44.446;26.000;2022-12-29T02:02:46;4.90;77.90
24426;DHT22;12611;44.446;26.000;2022-12-29T02:05:21;4.90;77.90
24426;DHT22;12611;44.446;26.000;2022-12-29T02:07:53;4.90;77.90
24426;DHT22;12611;44.446;26.000;2022-12-29T02:10:23;4.90;78.00
24426;DHT22;12611;44.446;26.000;2022-12-29T02:12:52;4.90;78.00
24426;DHT22;12611;44.446;26.000;2022-12-29T02:15:25;4.80;77.90
24426;DHT22;12611;44.446;26.000;2022-12-29T02:18:12;4.80;77.90
24426;DHT22;12611;44.446;26.000;2022-12-29T02:30:35;4.70;78.30
24426;DHT22;12611;44.446;26.000;2022-12-29T02:33:09;4.70;78.30
24426;DHT22;12611;44.446;26.000;2022-12-29T02:35:47;4.70;78.30
24426;DHT22;12611;44.446;26.000;2022-12-29T02:38:26;4.70;78.20
24426;DHT22;12611;44.446;26.000;2022-12-29T02:41:02;4.70;78.20
24426;DHT22;12611;44.446;26.000;2022-12-29T02:43:37;4.70;78.20
24426;DHT22;12611;44.446;26.000;2022-12-29T02:46:12;4.70;78.30
24426;DHT22;12611;44.446;26.000;2022-12-29T02:48:47;4.70;78.40
24426;DHT22;12611;44.446;26.000;2022-12-29T02:51:23;4.70;78.50
24426;DHT22;12611;44.446;26.000;2022-12-29T02:53:54;4.60;78.60
24426;DHT22;12611;44.446;26.000;2022-12-29T02:56:41;4.60;78.70
24426;DHT22;12611;44.446;26.000;2022-12-29T02:59:09;4.60;78.60
24426;DHT22;12611;44.446;26.000;2022-12-29T03:01:59;4.60;78.60
24426;DHT22;12611;44.446;26.000;2022-12-29T03:04:56;4.60;78.70
24426;DHT22;12611;44.446;26.000;2022-12-29T03:07:32;4.60;79.50
24426;DHT22;12611;44.446;26.000;2022-12-29T03:10:15;4.60;79.50
24426;DHT22;12611;44.446;26.000;2022-12-29T03:12:48;4.50;79.30
24426;DHT22;12611;44.446;26.000;2022-12-29T03:15:43;4.50;79.10
24426;DHT22;12611;44.446;26.000;2022-12-29T03:18:37;4.50;79.20
24426;DHT22;12611;44.446;26.000;2022-12-29T03:21:11;4.50;79.20
24426;DHT22;12611;44.446;26.000;2022-12-29T03:23:43;4.50;79.10
24426;DHT22;12611;44.446;26.000;2022-12-29T03:26:16;4.50;79.10
24426;DHT22;12611;44.446;26.000;2022-12-29T03:28:48;4.50;79.10
24426;DHT22;12611;44.446;26.000;2022-12-29T03:31:20;4.40;79.00
24426;DHT22;12611;44.446;26.000;2022-12-29T03:33:52;4.40;78.90
24426;DHT22;12611;44.446;26.000;2022-12-29T03:36:27;4.40;78.90
24426;DHT22;12611;44.446;26.000;2022-12-29T03:39:02;4.40;78.80
24426;DHT22;12611;44.446;26.000;2022-12-29T03:41:33;4.40;78.90
24426;DHT22;12611;44.446;26.000;2022-12-29T03:44:02;4.40;79.00
24426;DHT22;12611;44.446;26.000;2022-12-29T03:46:33;4.40;78.90
24426;DHT22;12611;44.446;26.000;2022-12-29T03:49:03;4.40;79.00
24426;DHT22;12611;44.446;26.000;2022-12-29T03:51:31;4.40;79.80
24426;DHT22;12611;44.446;26.000;2022-12-29T03:54:00;4.40;79.00
24426;DHT22;12611;44.446;26.000;2022-12-29T03:56:28;4.40;79.00
24426;DHT22;12611;44.446;26.000;2022-12-29T03:58:56;4.30;78.90
24426;DHT22;12611;44.446;26.000;2022-12-29T04:01:25;4.40;78.90
24426;DHT22;12611;44.446;26.000;2022-12-29T04:03:53;4.40;78.90
24426;DHT22;12611;44.446;26.000;2022-12-29T04:06:23;4.30;78.90
24426;DHT22;12611;44.446;26.000;2022-12-29T04:08:51;4.40;79.00
24426;DHT22;12611;44.446;26.000;2022-12-29T04:11:20;4.30;78.80
24426;DHT22;12611;44.446;26.000;2022-12-29T04:13:54;4.30;79.00
24426;DHT22;12611;44.446;26.000;2022-12-29T04:16:22;4.30;79.10
24426;DHT22;12611;44.446;26.000;2022-12-29T04:18:51;4.30;79.10
24426;DHT22;12611;44.446;26.000;2022-12-29T04:21:19;4.30;79.10
24426;DHT22;12611;44.446;26.000;2022-12-29T04:23:49;4.30;79.20
24426;DHT22;12611;44.446;26.000;2022-12-29T04:26:17;4.30;79.30
24426;DHT22;12611;44.446;26.000;2022-12-29T04:28:45;4.30;79.30
24426;DHT22;12611;44.446;26.000;2022-12-29T04:31:14;4.30;79.30
24426;DHT22;12611;44.446;26.000;2022-12-29T04:33:44;4.20;79.70
24426;DHT22;12611;44.446;26.000;2022-12-29T04:36:12;4.20;80.60
24426;DHT22;12611;44.446;26.000;2022-12-29T04:38:41;4.20;79.70
24426;DHT22;12611;44.446;26.000;2022-12-29T04:41:10;4.20;79.60
24426;DHT22;12611;44.446;26.000;2022-12-29T04:43:39;4.20;79.60
24426;DHT22;12611;44.446;26.000;2022-12-29T04:46:07;4.20;79.50
24426;DHT22;12611;44.446;26.000;2022-12-29T04:48:35;4.20;79.50
24426;DHT22;12611;44.446;26.000;2022-12-29T04:51:04;4.20;79.60
24426;DHT22;12611;44.446;26.000;2022-12-29T04:53:32;4.20;79.60
24426;DHT22;12611;44.446;26.000;2022-12-29T04:56:00;4.20;79.60
24426;DHT22;12611;44.446;26.000;2022-12-29T04:58:30;4.20;79.70
24426;DHT22;12611;44.446;26.000;2022-12-29T05:00:59;4.20;79.70
24426;DHT22;12611;44.446;26.000;2022-12-29T05:03:27;4.20;79.70
24426;DHT22;12611;44.446;26.000;2022-12-29T05:05:56;4.20;79.70
24426;DHT22;12611;44.446;26.000;2022-12-29T05:08:25;4.20;79.80
24426;DHT22;12611;44.446;26.000;2022-12-29T05:10:54;4.20;79.80
24426;DHT22;12611;44.446;26.000;2022-12-29T05:13:22;4.20;79.80
24426;DHT22;12611;44.446;26.000;2022-12-29T05:15:53;4.20;79.80
24426;DHT22;12611;44.446;26.000;2022-12-29T05:18:21;4.20;79.70
24426;DHT22;12611;44.446;26.000;2022-12-29T05:20:50;4.20;79.80
24426;DHT22;12611;44.446;26.000;2022-12-29T05:23:18;4.20;79.80
24426;DHT22;12611;44.446;26.000;2022-12-29T05:25:47;4.10;79.70
24426;DHT22;12611;44.446;26.000;2022-12-29T05:28:15;4.10;79.70
24426;DHT22;12611;44.446;26.000;2022-12-29T05:30:46;4.20;79.80
24426;DHT22;12611;44.446;26.000;2022-12-29T05:33:17;4.20;79.90
24426;DHT22;12611;44.446;26.000;2022-12-29T05:35:46;4.10;79.90
24426;DHT22;12611;44.446;26.000;2022-12-29T05:38:14;4.10;79.90
24426;DHT22;12611;44.446;26.000;2022-12-29T05:40:44;4.10;80.00
24426;DHT22;12611;44.446;26.000;2022-12-29T05:43:12;4.10;79.90
24426;DHT22;12611;44.446;26.000;2022-12-29T05:45:40;4.10;79.90
24426;DHT22;12611;44.446;26.000;2022-12-29T05:48:09;4.10;80.00
24426;DHT22;12611;44.446;26.000;2022-12-29T05:50:38;4.10;80.00
24426;DHT22;12611;44.446;26.000;2022-12-29T05:53:07;4.10;80.20
24426;DHT22;12611;44.446;26.000;2022-12-29T05:55:35;4.10;80.20
24426;DHT22;12611;44.446;26.000;2022-12-29T05:58:09;4.10;80.30
24426;DHT22;12611;44.446;26.000;2022-12-29T06:00:37;4.10;80.40
24426;DHT22;12611;44.446;26.000;2022-12-29T06:03:06;4.10;80.60
24426;DHT22;12611;44.446;26.000;2022-12-29T06:05:34;4.00;80.60
24426;DHT22;12611;44.446;26.000;2022-12-29T06:08:04;4.00;80.90
24426;DHT22;12611;44.446;26.000;2022-12-29T06:10:33;4.10;81.20
24426;DHT22;12611;44.446;26.000;2022-12-29T06:13:01;4.00;81.10
24426;DHT22;12611;44.446;26.000;2022-12-29T06:15:30;4.00;81.20
24426;DHT22;12611;44.446;26.000;2022-12-29T06:17:59;4.10;81.30
24426;DHT22;12611;44.446;26.000;2022-12-29T06:20:27;4.10;81.60
24426;DHT22;12611;44.446;26.000;2022-12-29T06:22:56;4.10;81.80
24426;DHT22;12611;44.446;26.000;2022-12-29T06:25:25;4.00;81.80
24426;DHT22;12611;44.446;26.000;2022-12-29T06:27:55;4.10;81.80
24426;DHT22;12611;44.446;26.000;2022-12-29T06:30:23;4.10;81.80
24426;DHT22;12611;44.446;26.000;2022-12-29T06:32:52;4.10;82.10
24426;DHT22;12611;44.446;26.000;2022-12-29T06:35:21;4.20;82.40
24426;DHT22;12611;44.446;26.000;2022-12-29T06:37:50;4.20;82.40
24426;DHT22;12611;44.446;26.000;2022-12-29T06:40:18;4.20;82.40
24426;DHT22;12611;44.446;26.000;2022-12-29T06:42:48;4.20;82.70
24426;DHT22;12611;44.446;26.000;2022-12-29T06:45:16;4.20;82.60
24426;DHT22;12611;44.446;26.000;2022-12-29T06:47:45;4.20;82.60
24426;DHT22;12611;44.446;26.000;2022-12-29T06:50:13;4.30;82.60
24426;DHT22;12611;44.446;26.000;2022-12-29T06:52:41;4.30;82.50
24426;DHT22;12611;44.446;26.000;2022-12-29T06:55:10;4.40;82.60
24426;DHT22;12611;44.446;26.000;2022-12-29T06:57:38;4.40;83.50
24426;DHT22;12611;44.446;26.000;2022-12-29T07:00:09;4.50;82.70
24426;DHT22;12611;44.446;26.000;2022-12-29T07:02:37;4.50;82.80
24426;DHT22;12611;44.446;26.000;2022-12-29T07:05:07;4.60;82.80
24426;DHT22;12611;44.446;26.000;2022-12-29T07:07:36;4.60;82.90
24426;DHT22;12611;44.446;26.000;2022-12-29T07:10:05;4.70;82.90
24426;DHT22;12611;44.446;26.000;2022-12-29T07:12:33;4.80;83.10
24426;DHT22;12611;44.446;26.000;2022-12-29T07:15:01;4.80;83.20
24426;DHT22;12611;44.446;26.000;2022-12-29T07:17:31;4.80;83.50
24426;DHT22;12611;44.446;26.000;2022-12-29T07:19:59;4.90;83.60
24426;DHT22;12611;44.446;26.000;2022-12-29T07:22:28;5.00;83.50
24426;DHT22;12611;44.446;26.000;2022-12-29T07:24:56;5.10;83.50
24426;DHT22;12611;44.446;26.000;2022-12-29T07:27:25;5.20;83.50
24426;DHT22;12611;44.446;26.000;2022-12-29T07:29:53;5.20;83.90
24426;DHT22;12611;44.446;26.000;2022-12-29T07:32:21;5.30;83.80
24426;DHT22;12611;44.446;26.000;2022-12-29T07:34:52;5.40;83.60
24426;DHT22;12611;44.446;26.000;2022-12-29T07:37:20;5.40;83.30
24426;DHT22;12611;44.446;26.000;2022-12-29T07:39:48;5.50;84.00
24426;DHT22;12611;44.446;26.000;2022-12-29T07:42:17;5.60;83.00
24426;DHT22;12611;44.446;26.000;2022-12-29T07:44:45;5.70;82.70
24426;DHT22;12611;44.446;26.000;2022-12-29T07:47:13;5.80;82.70
24426;DHT22;12611;44.446;26.000;2022-12-29T07:49:42;5.90;82.50
24426;DHT22;12611;44.446;26.000;2022-12-29T07:52:11;6.00;82.60
24426;DHT22;12611;44.446;26.000;2022-12-29T07:54:39;6.10;82.70
24426;DHT22;12611;44.446;26.000;2022-12-29T07:57:08;6.20;82.50
24426;DHT22;12611;44.446;26.000;2022-12-29T07:59:36;6.30;82.40
24426;DHT22;12611;44.446;26.000;2022-12-29T08:02:05;6.40;82.30
24426;DHT22;12611;44.446;26.000;2022-12-29T08:04:33;6.50;81.90
24426;DHT22;12611;44.446;26.000;2022-12-29T08:07:01;6.60;81.70
24426;DHT22;12611;44.446;26.000;2022-12-29T08:09:31;6.80;81.90
24426;DHT22;12611;44.446;26.000;2022-12-29T08:11:59;6.90;81.80
24426;DHT22;12611;44.446;26.000;2022-12-29T08:14:28;7.00;81.30
24426;DHT22;12611;44.446;26.000;2022-12-29T08:16:56;7.10;81.00
24426;DHT22;12611;44.446;26.000;2022-12-29T08:19:24;7.20;80.90
24426;DHT22;12611;44.446;26.000;2022-12-29T08:21:53;7.30;80.80
24426;DHT22;12611;44.446;26.000;2022-12-29T08:24:21;7.30;80.30
24426;DHT22;12611;44.446;26.000;2022-12-29T08:26:51;7.40;80.30
24426;DHT22;12611;44.446;26.000;2022-12-29T08:29:19;7.60;79.90
24426;DHT22;12611;44.446;26.000;2022-12-29T08:31:48;7.60;79.40
24426;DHT22;12611;44.446;26.000;2022-12-29T08:34:17;7.70;79.10
24426;DHT22;12611;44.446;26.000;2022-12-29T08:36:45;7.70;78.80
24426;DHT22;12611;44.446;26.000;2022-12-29T08:39:19;7.80;78.70
24426;DHT22;12611;44.446;26.000;2022-12-29T08:41:48;7.90;79.00
24426;DHT22;12611;44.446;26.000;2022-12-29T08:44:17;8.00;78.90
24426;DHT22;12611;44.446;26.000;2022-12-29T08:46:46;8.10;78.30
24426;DHT22;12611;44.446;26.000;2022-12-29T08:49:14;8.10;78.00
24426;DHT22;12611;44.446;26.000;2022-12-29T08:51:42;8.10;77.90
24426;DHT22;12611;44.446;26.000;2022-12-29T08:54:11;8.20;78.00
24426;DHT22;12611;44.446;26.000;2022-12-29T08:56:39;8.30;77.40
24426;DHT22;12611;44.446;26.000;2022-12-29T08:59:08;8.30;77.00
24426;DHT22;12611;44.446;26.000;2022-12-29T09:01:37;8.30;76.70
24426;DHT22;12611;44.446;26.000;2022-12-29T09:04:07;8.30;76.80
24426;DHT22;12611;44.446;26.000;2022-12-29T09:06:41;8.40;76.80
24426;DHT22;12611;44.446;26.000;2022-12-29T09:09:10;8.40;75.70
24426;DHT22;12611;44.446;26.000;2022-12-29T09:11:38;8.50;75.50
24426;DHT22;12611;44.446;26.000;2022-12-29T09:14:07;8.50;76.10
24426;DHT22;12611;44.446;26.000;2022-12-29T09:16:37;8.60;76.30
24426;DHT22;12611;44.446;26.000;2022-12-29T09:19:05;8.70;76.70
24426;DHT22;12611;44.446;26.000;2022-12-29T09:21:34;8.80;76.50
24426;DHT22;12611;44.446;26.000;2022-12-29T09:24:02;8.80;76.40
24426;DHT22;12611;44.446;26.000;2022-12-29T09:26:31;8.90;76.10
24426;DHT22;12611;44.446;26.000;2022-12-29T09:28:59;9.00;75.70
24426;DHT22;12611;44.446;26.000;2022-12-29T09:31:27;9.00;75.30
24426;DHT22;12611;44.446;26.000;2022-12-29T09:33:57;9.10;74.10
24426;DHT22;12611;44.446;26.000;2022-12-29T09:36:25;9.10;73.10
24426;DHT22;12611;44.446;26.000;2022-12-29T09:38:55;9.20;73.70
24426;DHT22;12611;44.446;26.000;2022-12-29T09:41:27;9.20;73.80
24426;DHT22;12611;44.446;26.000;2022-12-29T09:44:08;9.40;75.00
24426;DHT22;12611;44.446;26.000;2022-12-29T09:46:42;9.50;74.30
24426;DHT22;12611;44.446;26.000;2022-12-29T09:49:23;9.60;73.40
24426;DHT22;12611;44.446;26.000;2022-12-29T09:51:54;9.60;72.20
24426;DHT22;12611;44.446;26.000;2022-12-29T09:54:46;9.80;73.10
24426;DHT22;12611;44.446;26.000;2022-12-29T09:57:32;9.80;72.50
24426;DHT22;12611;44.446;26.000;2022-12-29T10:00:05;9.90;72.50
24426;DHT22;12611;44.446;26.000;2022-12-29T10:02:38;10.00;73.60
24426;DHT22;12611;44.446;26.000;2022-12-29T10:05:19;10.10;72.50
24426;DHT22;12611;44.446;26.000;2022-12-29T10:07:55;10.20;72.20
24426;DHT22;12611;44.446;26.000;2022-12-29T10:10:32;10.30;71.00
24426;DHT22;12611;44.446;26.000;2022-12-29T10:13:15;10.30;70.50
24426;DHT22;12611;44.446;26.000;2022-12-29T10:15:55;10.30;70.20
24426;DHT22;12611;44.446;26.000;2022-12-29T10:18:54;10.40;69.80
24426;DHT22;12611;44.446;26.000;2022-12-29T10:21:37;10.40;69.30
24426;DHT22;12611;44.446;26.000;2022-12-29T10:24:12;10.40;69.40
24426;DHT22;12611;44.446;26.000;2022-12-29T10:26:43;10.50;69.50
24426;DHT22;12611;44.446;26.000;2022-12-29T10:29:16;10.50;69.30
24426;DHT22;12611;44.446;26.000;2022-12-29T10:31:48;10.60;70.90
24426;DHT22;12611;44.446;26.000;2022-12-29T10:34:21;10.70;69.60
24426;DHT22;12611;44.446;26.000;2022-12-29T10:36:55;10.70;67.90
24426;DHT22;12611;44.446;26.000;2022-12-29T10:39:30;10.70;67.60
24426;DHT22;12611;44.446;26.000;2022-12-29T10:42:07;10.70;67.60
24426;DHT22;12611;44.446;26.000;2022-12-29T10:44:38;10.70;67.20
24426;DHT22;12611;44.446;26.000;2022-12-29T10:47:12;10.80;67.20
24426;DHT22;12611;44.446;26.000;2022-12-29T10:49:42;10.80;67.30
24426;DHT22;12611;44.446;26.000;2022-12-29T10:52:13;10.80;66.50
24426;DHT22;12611;44.446;26.000;2022-12-29T10:54:47;10.80;66.70
24426;DHT22;12611;44.446;26.000;2022-12-29T10:57:25;10.90;66.60
24426;DHT22;12611;44.446;26.000;2022-12-29T10:59:55;10.90;67.40
24426;DHT22;12611;44.446;26.000;2022-12-29T11:02:39;10.90;67.40
24426;DHT22;12611;44.446;26.000;2022-12-29T11:05:15;11.00;67.00
24426;DHT22;12611;44.446;26.000;2022-12-29T11:07:49;11.00;67.80
24426;DHT22;12611;44.446;26.000;2022-12-29T11:10:20;11.10;68.40
24426;DHT22;12611;44.446;26.000;2022-12-29T11:12:59;11.10;67.70
24426;DHT22;12611;44.446;26.000;2022-12-29T11:15:38;11.10;67.40
24426;DHT22;12611;44.446;26.000;2022-12-29T11:18:18;11.20;66.30
24426;DHT22;12611;44.446;26.000;2022-12-29T11:20:48;11.20;66.60
24426;DHT22;12611;44.446;26.000;2022-12-29T11:23:30;11.30;66.90
24426;DHT22;12611;44.446;26.000;2022-12-29T11:26:17;11.30;66.50
24426;DHT22;12611;44.446;26.000;2022-12-29T11:29:08;11.30;66.10
24426;DHT22;12611;44.446;26.000;2022-12-29T11:31:43;11.30;65.80
24426;DHT22;12611;44.446;26.000;2022-12-29T11:34:17;11.30;66.10
24426;DHT22;12611;44.446;26.000;2022-12-29T11:36:47;11.40;66.20
24426;DHT22;12611;44.446;26.000;2022-12-29T11:39:29;11.40;66.50
24426;DHT22;12611;44.446;26.000;2022-12-29T11:41:58;11.40;66.10
24426;DHT22;12611;44.446;26.000;2022-12-29T11:44:27;11.50;65.70
24426;DHT22;12611;44.446;26.000;2022-12-29T11:46:57;11.50;65.80
24426;DHT22;12611;44.446;26.000;2022-12-29T11:49:26;11.40;65.50
24426;DHT22;12611;44.446;26.000;2022-12-29T11:51:55;11.40;65.30
24426;DHT22;12611;44.446;26.000;2022-12-29T11:54:27;11.50;65.50
24426;DHT22;12611;44.446;26.000;2022-12-29T11:56:57;11.40;65.30
24426;DHT22;12611;44.446;26.000;2022-12-29T11:59:43;11.50;65.80
24426;DHT22;12611;44.446;26.000;2022-12-29T12:02:39;11.60;65.90
24426;DHT22;12611;44.446;26.000;2022-12-29T12:05:29;11.60;66.60
24426;DHT22;12611;44.446;26.000;2022-12-29T12:08:03;11.60;65.40
24426;DHT22;12611;44.446;26.000;2022-12-29T12:10:42;11.70;65.50
24426;DHT22;12611;44.446;26.000;2022-12-29T12:13:19;11.70;65.70
24426;DHT22;12611;44.446;26.000;2022-12-29T12:15:52;11.70;65.90
24426;DHT22;12611;44.446;26.000;2022-12-29T12:18:31;11.80;66.30
24426;DHT22;12611;44.446;26.000;2022-12-29T12:21:08;11.80;65.60
24426;DHT22;12611;44.446;26.000;2022-12-29T12:24:08;11.80;66.90
24426;DHT22;12611;44.446;26.000;2022-12-29T12:26:57;11.90;66.30
24426;DHT22;12611;44.446;26.000;2022-12-29T12:29:34;11.90;66.50
24426;DHT22;12611;44.446;26.000;2022-12-29T12:32:11;11.90;65.80
24426;DHT22;12611;44.446;26.000;2022-12-29T12:34:43;11.90;65.60
24426;DHT22;12611;44.446;26.000;2022-12-29T12:40:34;12.00;65.40
24426;DHT22;12611;44.446;26.000;2022-12-29T12:43:40;12.00;65.00
24426;DHT22;12611;44.446;26.000;2022-12-29T12:46:42;12.00;65.50
24426;DHT22;12611;44.446;26.000;2022-12-29T12:49:37;12.10;65.50
24426;DHT22;12611;44.446;26.000;2022-12-29T12:52:18;12.20;65.50
24426;DHT22;12611;44.446;26.000;2022-12-29T12:55:00;12.20;65.30
24426;DHT22;12611;44.446;26.000;2022-12-29T12:57:40;12.20;64.70
24426;DHT22;12611;44.446;26.000;2022-12-29T13:00:16;12.30;64.40
24426;DHT22;12611;44.446;26.000;2022-12-29T13:02:56;12.40;65.20
24426;DHT22;12611;44.446;26.000;2022-12-29T13:05:57;12.50;65.70
24426;DHT22;12611;44.446;26.000;2022-12-29T13:08:46;12.60;65.70
24426;DHT22;12611;44.446;26.000;2022-12-29T13:11:22;12.80;65.40
24426;DHT22;12611;44.446;26.000;2022-12-29T13:14:10;13.00;65.60
24426;DHT22;12611;44.446;26.000;2022-12-29T13:16:49;13.20;64.50
24426;DHT22;12611;44.446;26.000;2022-12-29T13:19:29;13.40;64.20
24426;DHT22;12611;44.446;26.000;2022-12-29T13:22:05;13.40;62.50
24426;DHT22;12611;44.446;26.000;2022-12-29T13:24:45;13.50;62.70
24426;DHT22;12611;44.446;26.000;2022-12-29T13:27:18;13.50;61.40
24426;DHT22;12611;44.446;26.000;2022-12-29T13:29:59;13.70;61.40
24426;DHT22;12611;44.446;26.000;2022-12-29T13:32:39;14.70;58.90
24426;DHT22;12611;44.446;26.000;2022-12-29T13:38:10;18.40;53.90
24426;DHT22;12611;44.446;26.000;2022-12-29T13:40:43;19.70;50.70
24426;DHT22;12611;44.446;26.000;2022-12-29T13:43:13;19.80;49.90
24426;DHT22;12611;44.446;26.000;2022-12-29T13:45:43;21.00;47.80
24426;DHT22;12611;44.446;26.000;2022-12-29T13:48:17;20.50;48.10
24426;DHT22;12611;44.446;26.000;2022-12-29T13:50:52;21.20;46.80
24426;DHT22;12611;44.446;26.000;2022-12-29T13:53:29;21.60;45.70
24426;DHT22;12611;44.446;26.000;2022-12-29T13:56:05;20.80;46.60
24426;DHT22;12611;44.446;26.000;2022-12-29T13:58:39;20.60;47.70
24426;DHT22;12611;44.446;26.000;2022-12-29T14:01:16;20.40;47.60
24426;DHT22;12611;44.446;26.000;2022-12-29T14:03:49;20.30;47.80
24426;DHT22;12611;44.446;26.000;2022-12-29T14:06:23;20.50;47.10
24426;DHT22;12611;44.446;26.000;2022-12-29T14:08:54;20.20;47.00
24426;DHT22;12611;44.446;26.000;2022-12-29T14:11:30;19.50;48.10
24426;DHT22;12611;44.446;26.000;2022-12-29T14:13:59;18.70;49.40
24426;DHT22;12611;44.446;26.000;2022-12-29T14:16:38;18.00;50.30
24426;DHT22;12611;44.446;26.000;2022-12-29T14:19:15;17.50;51.20
24426;DHT22;12611;44.446;26.000;2022-12-29T14:21:51;16.90;52.10
24426;DHT22;12611;44.446;26.000;2022-12-29T14:24:39;16.40;53.00
24426;DHT22;12611;44.446;26.000;2022-12-29T14:27:43;15.90;54.20
24426;DHT22;12611;44.446;26.000;2022-12-29T14:33:13;15.00;56.30
24426;DHT22;12611;44.446;26.000;2022-12-29T14:35:45;14.60;57.00
24426;DHT22;12611;44.446;26.000;2022-12-29T14:38:22;14.30;57.70
24426;DHT22;12611;44.446;26.000;2022-12-29T14:40:51;14.10;58.30
24426;DHT22;12611;44.446;26.000;2022-12-29T14:43:25;13.80;59.30
24426;DHT22;12611;44.446;26.000;2022-12-29T14:45:57;13.60;59.60
24426;DHT22;12611;44.446;26.000;2022-12-29T14:48:38;13.40;60.40
24426;DHT22;12611;44.446;26.000;2022-12-29T14:51:20;13.10;61.80
24426;DHT22;12611;44.446;26.000;2022-12-29T14:53:50;12.90;61.70
24426;DHT22;12611;44.446;26.000;2022-12-29T14:56:23;12.70;62.40
24426;DHT22;12611;44.446;26.000;2022-12-29T14:58:54;12.60;63.10
24426;DHT22;12611;44.446;26.000;2022-12-29T15:01:28;12.40;63.30
24426;DHT22;12611;44.446;26.000;2022-12-29T15:04:05;12.20;64.10
24426;DHT22;12611;44.446;26.000;2022-12-29T15:06:37;12.10;65.50
24426;DHT22;12611;44.446;26.000;2022-12-29T15:09:22;11.90;66.40
24426;DHT22;12611;44.446;26.000;2022-12-29T15:11:53;11.70;67.40
24426;DHT22;12611;44.446;26.000;2022-12-29T15:14:33;11.50;68.80
24426;DHT22;12611;44.446;26.000;2022-12-29T15:17:09;11.40;69.10
24426;DHT22;12611;44.446;26.000;2022-12-29T15:19:38;11.30;69.70
24426;DHT22;12611;44.446;26.000;2022-12-29T15:22:09;11.10;69.90
24426;DHT22;12611;44.446;26.000;2022-12-29T15:24:41;11.00;70.30
24426;DHT22;12611;44.446;26.000;2022-12-29T15:27:13;10.90;71.00
24426;DHT22;12611;44.446;26.000;2022-12-29T15:29:44;10.80;71.40
24426;DHT22;12611;44.446;26.000;2022-12-29T15:32:21;10.70;71.60
24426;DHT22;12611;44.446;26.000;2022-12-29T15:34:51;10.60;72.50
24426;DHT22;12611;44.446;26.000;2022-12-29T15:37:23;10.50;72.20
24426;DHT22;12611;44.446;26.000;2022-12-29T15:39:53;10.40;72.90
24426;DHT22;12611;44.446;26.000;2022-12-29T15:42:43;10.40;73.40
24426;DHT22;12611;44.446;26.000;2022-12-29T15:45:14;10.30;73.80
24426;DHT22;12611;44.446;26.000;2022-12-29T15:47:44;10.30;73.90
24426;DHT22;12611;44.446;26.000;2022-12-29T15:50:22;10.20;74.30
24426;DHT22;12611;44.446;26.000;2022-12-29T15:52:55;10.10;74.70
24426;DHT22;12611;44.446;26.000;2022-12-29T15:55:28;10.00;75.10
24426;DHT22;12611;44.446;26.000;2022-12-29T15:58:00;9.90;75.60
24426;DHT22;12611;44.446;26.000;2022-12-29T16:00:31;9.90;75.50
24426;DHT22;12611;44.446;26.000;2022-12-29T16:03:01;9.90;75.60
24426;DHT22;12611;44.446;26.000;2022-12-29T16:05:34;9.80;76.00
24426;DHT22;12611;44.446;26.000;2022-12-29T16:08:21;9.70;76.50
24426;DHT22;12611;44.446;26.000;2022-12-29T16:10:50;9.70;76.50
24426;DHT22;12611;44.446;26.000;2022-12-29T16:13:25;9.70;77.00
24426;DHT22;12611;44.446;26.000;2022-12-29T16:15:59;9.60;77.50
24426;DHT22;12611;44.446;26.000;2022-12-29T16:18:32;9.60;77.60
24426;DHT22;12611;44.446;26.000;2022-12-29T16:21:02;9.50;78.10
24426;DHT22;12611;44.446;26.000;2022-12-29T16:23:36;9.50;78.40